Time;durP1;ratioP1;P1;durP2;ratioP2;P2;SDS_P1;SDS_P2;PMS_P1;PMS_P2;Temp;Humidity;BMP_temperature;BMP_pressure;BME280_temperature;BME280_humidity;BME280_pressure;Samples;Min_cycle;Max_cycle;Signal;HPM_P1;HPM_P2
2021/08/04 00:00:02;;;;;;;;;;;27.30;45.20;;;;;;5002311;28;87180;-45
2021/08/04 00:02:27;;;;;;;;;;;27.30;45.20;;;;;;5002813;28;88595;-46
2021/08/04 00:04:53;;;;;;;;;;;27.30;45.10;;;;;;5002014;28;88169;-45
2021/08/04 00:07:18;;;;;;;;;;;27.30;45.10;;;;;;4999269;28;88436;-45
2021/08/04 00:09:44;;;;;;;;;;;27.20;45.20;;;;;;4998705;28;88157;-45
2021/08/04 00:12:10;;;;;;;;;;;27.20;45.10;;;;;;5000225;28;88632;-45
2021/08/04 00:14:35;;;;;;;;;;;27.20;45.10;;;;;;5001450;28;87125;-45
2021/08/04 00:17:01;;;;;;;;;;;27.20;45.10;;;;;;5002653;28;87449;-47
2021/08/04 00:19:26;;;;;;;;;;;27.20;45.60;;;;;;5003713;28;88203;-44
2021/08/04 00:21:52;;;;;;;;;;;27.20;45.40;;;;;;4998682;28;88823;-46
2021/08/04 00:24:17;;;;;;;;;;;27.10;45.20;;;;;;4997858;28;90642;-46
2021/08/04 00:26:43;;;;;;;;;;;27.10;45.20;;;;;;4999798;28;86433;-44
2021/08/04 00:29:08;;;;;;;;;;;27.10;45.10;;;;;;5000671;28;87179;-44
2021/08/04 00:31:34;;;;;;;;;;;27.10;45.20;;;;;;5000693;28;89591;-45
2021/08/04 00:34:00;;;;;;;;;;;27.10;45.30;;;;;;4999965;28;88101;-45
2021/08/04 00:36:25;;;;;;;;;;;27.00;45.10;;;;;;4999635;28;88497;-46
2021/08/04 00:38:51;;;;;;;;;;;27.00;45.20;;;;;;4998676;28;87676;-44
2021/08/04 00:41:16;;;;;;;;;;;27.00;45.20;;;;;;5001474;28;87269;-44
2021/08/04 00:43:42;;;;;;;;;;;27.00;45.20;;;;;;4999012;28;89252;-45
2021/08/04 00:46:10;;;;;;;;;;;27.00;45.00;;;;;;5000512;28;87200;-45
2021/08/04 00:48:35;;;;;;;;;;;26.90;45.30;;;;;;4998505;28;87154;-45
2021/08/04 00:51:01;;;;;;;;;;;26.90;45.20;;;;;;4999817;28;87500;-51
2021/08/04 00:53:28;;;;;;;;;;;27.00;45.30;;;;;;5000745;28;87146;-45
2021/08/04 00:55:54;;;;;;;;;;;26.90;45.20;;;;;;5000218;28;88870;-45
2021/08/04 00:58:21;;;;;;;;;;;26.90;45.10;;;;;;4999409;28;91097;-45
2021/08/04 01:00:58;;;;;;;;;;;26.90;45.40;;;;;;5002624;28;87135;-47
2021/08/04 01:03:29;;;;;;;;;;;26.90;45.40;;;;;;4998279;28;88080;-45
2021/08/04 01:05:55;;;;;;;;;;;26.90;45.30;;;;;;4999842;28;87138;-45
2021/08/04 01:08:29;;;;;;;;;;;26.80;45.20;;;;;;4999630;28;88685;-45
2021/08/04 01:10:55;;;;;;;;;;;26.80;45.20;;;;;;4997552;28;89089;-46
2021/08/04 01:13:27;;;;;;;;;;;26.80;45.40;;;;;;4998038;28;87969;-44
2021/08/04 01:15:55;;;;;;;;;;;26.80;45.20;;;;;;4998528;28;88822;-45
2021/08/04 01:18:23;;;;;;;;;;;26.80;45.50;;;;;;5000407;28;87668;-45
2021/08/04 01:20:49;;;;;;;;;;;26.80;45.40;;;;;;4999221;28;87127;-46
2021/08/04 01:23:31;;;;;;;;;;;26.80;45.40;;;;;;5001358;28;88508;-46
2021/08/04 01:26:07;;;;;;;;;;;26.80;45.40;;;;;;4999310;28;87156;-45
2021/08/04 01:28:41;;;;;;;;;;;26.70;45.60;;;;;;5000440;28;87151;-46
2021/08/04 01:31:09;;;;;;;;;;;26.70;45.40;;;;;;4998959;28;88393;-45
2021/08/04 01:33:37;;;;;;;;;;;26.70;45.50;;;;;;5000801;28;87175;-44
2021/08/04 01:36:04;;;;;;;;;;;26.70;45.30;;;;;;4997864;28;88043;-44
2021/08/04 01:38:30;;;;;;;;;;;26.60;45.40;;;;;;4997085;28;87821;-45
2021/08/04 01:40:56;;;;;;;;;;;26.60;45.20;;;;;;4998169;28;86390;-45
2021/08/04 01:43:23;;;;;;;;;;;26.60;45.60;;;;;;4997687;28;87216;-47
2021/08/04 01:45:49;;;;;;;;;;;26.60;45.40;;;;;;4999924;28;88032;-45
2021/08/04 01:48:15;;;;;;;;;;;26.60;45.40;;;;;;4996296;28;88174;-46
2021/08/04 01:50:40;;;;;;;;;;;26.60;45.50;;;;;;4997410;28;87834;-45
2021/08/04 01:53:07;;;;;;;;;;;26.60;45.60;;;;;;4998421;28;87146;-45
2021/08/04 01:55:33;;;;;;;;;;;26.50;45.60;;;;;;4998138;28;88847;-45
2021/08/04 01:57:58;;;;;;;;;;;26.50;45.50;;;;;;4998523;28;89489;-45
2021/08/04 02:00:24;;;;;;;;;;;26.60;45.50;;;;;;4998869;28;87139;-46
2021/08/04 02:02:50;;;;;;;;;;;26.50;45.50;;;;;;4999493;28;87637;-46
2021/08/04 02:05:15;;;;;;;;;;;26.50;45.40;;;;;;5000424;28;86410;-45
2021/08/04 02:07:50;;;;;;;;;;;26.50;45.70;;;;;;5004378;28;87199;-45
2021/08/04 02:10:19;;;;;;;;;;;26.50;45.50;;;;;;4998350;28;88620;-45
2021/08/04 02:12:54;;;;;;;;;;;26.40;45.50;;;;;;4997341;28;88121;-45
2021/08/04 02:15:20;;;;;;;;;;;26.40;45.50;;;;;;5000302;28;87995;-44
2021/08/04 02:17:45;;;;;;;;;;;26.40;45.70;;;;;;5000622;28;88250;-48
2021/08/04 02:20:11;;;;;;;;;;;26.30;45.70;;;;;;4998115;28;88016;-45
2021/08/04 02:22:42;;;;;;;;;;;26.30;45.60;;;;;;4996404;28;87225;-44
2021/08/04 02:25:11;;;;;;;;;;;26.40;45.60;;;;;;4998177;28;88520;-46
2021/08/04 02:27:38;;;;;;;;;;;26.30;45.60;;;;;;4998826;28;87203;-44
2021/08/04 02:30:05;;;;;;;;;;;26.30;45.70;;;;;;5001441;28;89449;-46
2021/08/04 02:32:30;;;;;;;;;;;26.30;45.50;;;;;;4996934;28;87271;-45
2021/08/04 02:34:56;;;;;;;;;;;26.30;45.70;;;;;;4996811;28;88692;-45
2021/08/04 02:37:22;;;;;;;;;;;26.30;45.70;;;;;;4996023;28;88521;-45
2021/08/04 02:39:48;;;;;;;;;;;26.30;46.40;;;;;;4997420;28;87208;-45
2021/08/04 02:42:14;;;;;;;;;;;26.20;45.70;;;;;;4998637;28;87245;-44
2021/08/04 02:44:39;;;;;;;;;;;26.20;45.70;;;;;;4999407;28;88342;-44
2021/08/04 02:47:05;;;;;;;;;;;26.20;45.90;;;;;;4999644;28;87157;-45
2021/08/04 02:49:31;;;;;;;;;;;26.20;45.90;;;;;;4999053;28;87209;-45
2021/08/04 02:51:56;;;;;;;;;;;26.10;45.80;;;;;;5002600;28;89415;-45
2021/08/04 02:54:22;;;;;;;;;;;26.10;45.70;;;;;;4999784;28;88086;-44
2021/08/04 02:56:47;;;;;;;;;;;26.10;45.70;;;;;;4995550;28;88821;-45
2021/08/04 02:59:13;;;;;;;;;;;26.10;45.70;;;;;;4996681;28;87169;-45
2021/08/04 03:01:38;;;;;;;;;;;26.10;46.30;;;;;;4997265;28;88845;-45
2021/08/04 03:04:04;;;;;;;;;;;26.10;45.80;;;;;;4997697;28;87457;-47
2021/08/04 03:06:29;;;;;;;;;;;26.10;45.70;;;;;;4999023;28;87215;-44
2021/08/04 03:08:55;;;;;;;;;;;26.00;45.70;;;;;;5000315;28;87190;-46
2021/08/04 03:11:20;;;;;;;;;;;26.00;45.90;;;;;;5000671;28;89286;-44
2021/08/04 03:13:46;;;;;;;;;;;26.00;45.70;;;;;;4995964;28;87546;-46
2021/08/04 03:16:11;;;;;;;;;;;26.00;45.80;;;;;;4998214;28;88445;-44
2021/08/04 03:18:37;;;;;;;;;;;25.90;45.90;;;;;;5001025;28;86406;-45
2021/08/04 03:21:03;;;;;;;;;;;25.90;45.70;;;;;;5001641;28;88647;-44
2021/08/04 03:23:28;;;;;;;;;;;25.90;45.90;;;;;;5002765;28;88261;-46
2021/08/04 03:25:54;;;;;;;;;;;25.90;45.80;;;;;;5002343;28;88072;-45
2021/08/04 03:28:19;;;;;;;;;;;25.90;45.80;;;;;;4999836;28;88885;-44
2021/08/04 03:30:45;;;;;;;;;;;25.90;45.90;;;;;;4999541;28;88229;-45
2021/08/04 03:33:10;;;;;;;;;;;25.90;45.90;;;;;;5003766;28;87127;-46
2021/08/04 03:35:36;;;;;;;;;;;25.90;45.80;;;;;;5001753;28;88284;-45
2021/08/04 03:38:01;;;;;;;;;;;25.80;45.90;;;;;;5003148;28;87128;-45
2021/08/04 03:40:27;;;;;;;;;;;25.90;46.00;;;;;;5002025;28;87978;-44
2021/08/04 03:42:52;;;;;;;;;;;25.90;45.90;;;;;;4998853;28;88301;-47
2021/08/04 03:45:18;;;;;;;;;;;25.80;46.00;;;;;;4999451;28;87098;-45
2021/08/04 03:47:44;;;;;;;;;;;25.80;46.10;;;;;;4998651;28;87143;-45
2021/08/04 03:50:10;;;;;;;;;;;25.70;45.90;;;;;;4998911;28;88646;-45
2021/08/04 03:52:36;;;;;;;;;;;25.70;45.90;;;;;;4999967;28;87182;-45
2021/08/04 03:55:01;;;;;;;;;;;25.70;46.00;;;;;;5003458;28;88592;-45
2021/08/04 03:57:27;;;;;;;;;;;25.60;46.20;;;;;;5001895;28;87118;-44
2021/08/04 03:59:53;;;;;;;;;;;25.60;46.00;;;;;;5002865;28;87160;-45
2021/08/04 04:02:18;;;;;;;;;;;25.60;46.10;;;;;;5001381;28;88769;-44
2021/08/04 04:04:44;;;;;;;;;;;25.70;46.20;;;;;;4998593;28;87142;-45
2021/08/04 04:07:09;;;;;;;;;;;25.60;46.10;;;;;;5000272;28;87778;-47
2021/08/04 04:09:36;;;;;;;;;;;25.60;46.00;;;;;;5000209;28;88776;-45
2021/08/04 04:12:01;;;;;;;;;;;25.60;46.10;;;;;;4998539;28;87249;-44
2021/08/04 04:14:27;;;;;;;;;;;25.60;46.10;;;;;;4998136;28;88087;-44
2021/08/04 04:16:53;;;;;;;;;;;25.60;46.20;;;;;;5001298;28;88069;-45
2021/08/04 04:19:18;;;;;;;;;;;25.60;46.30;;;;;;4999835;28;87619;-44
2021/08/04 04:21:44;;;;;;;;;;;25.50;46.10;;;;;;5000562;28;88926;-44
2021/08/04 04:24:10;;;;;;;;;;;25.50;46.40;;;;;;5002106;28;87152;-45
2021/08/04 04:26:35;;;;;;;;;;;25.50;46.40;;;;;;5002062;28;87578;-45
2021/08/04 04:29:01;;;;;;;;;;;25.50;46.40;;;;;;5000066;28;88043;-45
2021/08/04 04:31:27;;;;;;;;;;;25.50;46.30;;;;;;4998547;28;86439;-46
2021/08/04 04:33:52;;;;;;;;;;;25.50;46.50;;;;;;4998014;28;89088;-45
2021/08/04 04:36:18;;;;;;;;;;;25.50;46.40;;;;;;4998912;28;87645;-45
2021/08/04 04:38:43;;;;;;;;;;;25.50;46.30;;;;;;5002598;28;88199;-45
2021/08/04 04:41:10;;;;;;;;;;;25.50;46.50;;;;;;5001347;28;87233;-45
2021/08/04 04:43:38;;;;;;;;;;;25.40;46.50;;;;;;5001491;28;87291;-44
2021/08/04 04:46:03;;;;;;;;;;;25.50;46.50;;;;;;4999259;28;87229;-44
2021/08/04 04:48:29;;;;;;;;;;;25.40;46.40;;;;;;4999831;28;88128;-44
2021/08/04 04:50:54;;;;;;;;;;;25.40;46.40;;;;;;5001364;28;87162;-45
2021/08/04 04:53:20;;;;;;;;;;;25.40;46.50;;;;;;5002661;28;87137;-45
2021/08/04 04:55:46;;;;;;;;;;;25.40;46.60;;;;;;4999427;28;88929;-44
2021/08/04 04:58:11;;;;;;;;;;;25.40;46.60;;;;;;4999200;28;88113;-47
2021/08/04 05:00:36;;;;;;;;;;;25.30;46.50;;;;;;5004749;28;88734;-47
2021/08/04 05:03:02;;;;;;;;;;;25.30;46.60;;;;;;5001819;28;88094;-47
2021/08/04 05:05:28;;;;;;;;;;;25.30;46.60;;;;;;5001995;28;88802;-45
2021/08/04 05:07:53;;;;;;;;;;;25.30;46.60;;;;;;4999820;28;88694;-44
2021/08/04 05:10:19;;;;;;;;;;;25.30;46.80;;;;;;4997551;28;87179;-44
2021/08/04 05:12:44;;;;;;;;;;;25.30;46.70;;;;;;4998710;28;88736;-46
2021/08/04 05:15:10;;;;;;;;;;;25.30;46.60;;;;;;4999703;28;88193;-45
2021/08/04 05:17:36;;;;;;;;;;;25.30;46.80;;;;;;5000659;28;87178;-45
2021/08/04 05:20:01;;;;;;;;;;;25.30;46.80;;;;;;5004951;28;87504;-47
2021/08/04 05:22:27;;;;;;;;;;;25.30;46.80;;;;;;5000149;28;88913;-45
2021/08/04 05:24:52;;;;;;;;;;;25.30;46.80;;;;;;4997455;28;87632;-46
2021/08/04 05:27:18;;;;;;;;;;;25.30;46.90;;;;;;4997535;28;88523;-44
2021/08/04 05:29:43;;;;;;;;;;;25.30;46.80;;;;;;4998862;28;87242;-45
2021/08/04 05:32:09;;;;;;;;;;;25.30;46.90;;;;;;4999726;28;87194;-44
2021/08/04 05:34:34;;;;;;;;;;;25.30;46.90;;;;;;5000644;28;87201;-45
2021/08/04 05:37:00;;;;;;;;;;;25.20;47.00;;;;;;5001369;28;88679;-44
2021/08/04 05:39:25;;;;;;;;;;;25.30;47.10;;;;;;4996800;28;88830;-44
2021/08/04 05:41:51;;;;;;;;;;;25.30;47.00;;;;;;5000593;28;88211;-45
2021/08/04 05:44:16;;;;;;;;;;;25.30;47.00;;;;;;4998899;28;88185;-44
2021/08/04 05:46:42;;;;;;;;;;;25.30;47.10;;;;;;4997994;28;88667;-45
2021/08/04 05:49:08;;;;;;;;;;;25.30;47.10;;;;;;4998651;28;87909;-45
2021/08/04 05:51:33;;;;;;;;;;;25.30;47.10;;;;;;4998153;28;88184;-46
2021/08/04 05:53:59;;;;;;;;;;;25.30;47.10;;;;;;5001084;28;88160;-45
2021/08/04 05:56:24;;;;;;;;;;;25.30;47.20;;;;;;5001343;28;87204;-45
2021/08/04 05:58:50;;;;;;;;;;;25.30;47.10;;;;;;5000688;28;87152;-44
2021/08/04 06:01:15;;;;;;;;;;;25.30;47.20;;;;;;4999874;28;87199;-45
2021/08/04 06:03:41;;;;;;;;;;;25.30;47.10;;;;;;5004316;28;87130;-44
2021/08/04 06:06:06;;;;;;;;;;;25.30;47.20;;;;;;5000865;28;88230;-45
2021/08/04 06:08:32;;;;;;;;;;;25.20;47.20;;;;;;5000980;28;86426;-44
2021/08/04 06:10:57;;;;;;;;;;;25.30;47.30;;;;;;4999635;28;87240;-45
2021/08/04 06:13:23;;;;;;;;;;;25.20;47.30;;;;;;4999222;28;89171;-44
2021/08/04 06:15:49;;;;;;;;;;;25.20;47.40;;;;;;4999836;28;88107;-45
2021/08/04 06:18:15;;;;;;;;;;;25.20;47.40;;;;;;4999082;28;87936;-44
2021/08/04 06:20:40;;;;;;;;;;;25.20;47.40;;;;;;4997873;28;87563;-44
2021/08/04 06:23:06;;;;;;;;;;;25.20;47.40;;;;;;4997605;28;87186;-45
2021/08/04 06:25:31;;;;;;;;;;;25.20;47.40;;;;;;4999639;28;87263;-44
2021/08/04 06:27:57;;;;;;;;;;;25.20;47.50;;;;;;4997333;28;87136;-44
2021/08/04 06:30:22;;;;;;;;;;;25.20;47.50;;;;;;4996551;28;87317;-45
2021/08/04 06:32:48;;;;;;;;;;;25.20;47.50;;;;;;4996681;28;89179;-46
2021/08/04 06:35:13;;;;;;;;;;;25.20;47.50;;;;;;4999893;28;88312;-45
2021/08/04 06:37:39;;;;;;;;;;;25.20;47.60;;;;;;5001408;28;87636;-44
2021/08/04 06:40:05;;;;;;;;;;;25.20;47.60;;;;;;4998861;28;89107;-50
2021/08/04 06:42:31;;;;;;;;;;;25.20;47.70;;;;;;4999807;28;87136;-45
2021/08/04 06:44:56;;;;;;;;;;;25.20;47.70;;;;;;4999847;28;87124;-45
2021/08/04 06:47:22;;;;;;;;;;;25.20;47.60;;;;;;5002258;28;87791;-45
2021/08/04 06:49:47;;;;;;;;;;;25.20;47.70;;;;;;4998851;28;87471;-44
2021/08/04 06:52:13;;;;;;;;;;;25.20;47.60;;;;;;4998204;28;87993;-45
2021/08/04 06:54:38;;;;;;;;;;;25.20;47.60;;;;;;4997772;28;87127;-45
2021/08/04 06:57:04;;;;;;;;;;;25.20;47.70;;;;;;4997605;28;86972;-46
2021/08/04 06:59:29;;;;;;;;;;;25.30;47.70;;;;;;4995645;28;88129;-44
2021/08/04 07:01:55;;;;;;;;;;;25.30;47.50;;;;;;4997300;28;88903;-44
2021/08/04 07:04:21;;;;;;;;;;;25.30;47.60;;;;;;4997041;28;89593;-45
2021/08/04 07:06:50;;;;;;;;;;;25.30;47.60;;;;;;4995809;28;88508;-45
2021/08/04 07:09:16;;;;;;;;;;;25.20;47.60;;;;;;4999610;28;87206;-45
2021/08/04 07:11:41;;;;;;;;;;;25.30;47.70;;;;;;4995808;28;88342;-44
2021/08/04 07:14:07;;;;;;;;;;;25.30;47.60;;;;;;4997270;28;87253;-44
2021/08/04 07:16:32;;;;;;;;;;;25.20;47.50;;;;;;4998346;28;87441;-45
2021/08/04 07:18:58;;;;;;;;;;;25.30;47.60;;;;;;4997745;28;90046;-46
2021/08/04 07:21:23;;;;;;;;;;;25.20;47.50;;;;;;5000144;28;86414;-45
2021/08/04 07:23:49;;;;;;;;;;;25.20;47.50;;;;;;4999039;28;88059;-46
2021/08/04 07:26:14;;;;;;;;;;;25.30;47.50;;;;;;4995345;28;89319;-45
2021/08/04 07:28:41;;;;;;;;;;;25.30;47.40;;;;;;4998797;28;88172;-44
2021/08/04 07:31:07;;;;;;;;;;;25.30;48.20;;;;;;4995467;28;89427;-46
2021/08/04 07:33:32;;;;;;;;;;;25.30;47.60;;;;;;4996690;28;87212;-45
2021/08/04 07:35:58;;;;;;;;;;;25.30;47.60;;;;;;4996763;28;88756;-45
2021/08/04 07:38:23;;;;;;;;;;;25.30;47.50;;;;;;4997624;28;87825;-45
2021/08/04 07:40:49;;;;;;;;;;;25.30;47.50;;;;;;4999356;28;87227;-45
2021/08/04 07:43:14;;;;;;;;;;;25.30;47.50;;;;;;4999070;28;88649;-45
2021/08/04 07:45:40;;;;;;;;;;;25.30;47.50;;;;;;4999243;28;88659;-46
2021/08/04 07:48:05;;;;;;;;;;;25.30;47.50;;;;;;4996229;28;88053;-44
2021/08/04 07:50:31;;;;;;;;;;;25.30;47.60;;;;;;4998417;28;87143;-45
2021/08/04 07:52:57;;;;;;;;;;;25.30;47.50;;;;;;4995182;28;88075;-44
2021/08/04 07:55:22;;;;;;;;;;;25.30;47.50;;;;;;4997252;28;88609;-45
2021/08/04 07:57:48;;;;;;;;;;;25.30;47.50;;;;;;4997989;28;87287;-45
2021/08/04 08:00:14;;;;;;;;;;;25.30;47.50;;;;;;4999085;28;87335;-46
2021/08/04 08:02:39;;;;;;;;;;;25.30;47.50;;;;;;5001017;28;90092;-44
2021/08/04 08:05:05;;;;;;;;;;;25.30;47.50;;;;;;5000567;28;89078;-46
2021/08/04 08:07:31;;;;;;;;;;;25.30;47.40;;;;;;5003342;28;87117;-45
2021/08/04 08:09:56;;;;;;;;;;;25.30;47.30;;;;;;5003189;28;87407;-45
2021/08/04 08:12:22;;;;;;;;;;;25.30;47.30;;;;;;5005047;28;88446;-45
2021/08/04 08:14:47;;;;;;;;;;;25.40;47.30;;;;;;4999027;28;88953;-45
2021/08/04 08:17:13;;;;;;;;;;;25.40;47.30;;;;;;4998150;28;88707;-44
2021/08/04 08:19:39;;;;;;;;;;;25.40;47.20;;;;;;4999471;28;87147;-44
2021/08/04 08:22:05;;;;;;;;;;;25.40;47.30;;;;;;4999080;28;89214;-45
2021/08/04 08:24:31;;;;;;;;;;;25.40;47.30;;;;;;4998967;28;89368;-45
2021/08/04 08:26:56;;;;;;;;;;;25.40;47.30;;;;;;4999716;28;87227;-45
2021/08/04 08:29:22;;;;;;;;;;;25.40;47.20;;;;;;5000727;28;89191;-45
2021/08/04 08:31:47;;;;;;;;;;;25.40;48.00;;;;;;5001664;28;88062;-45
2021/08/04 08:34:13;;;;;;;;;;;25.40;47.20;;;;;;5005647;28;87231;-44
2021/08/04 08:36:39;;;;;;;;;;;25.40;47.30;;;;;;4998750;28;88555;-45
2021/08/04 08:39:06;;;;;;;;;;;25.40;47.20;;;;;;4998607;28;87215;-44
2021/08/04 08:41:31;;;;;;;;;;;25.50;47.40;;;;;;4997647;28;89571;-47
2021/08/04 08:43:57;;;;;;;;;;;25.50;47.40;;;;;;4998570;28;87612;-44
2021/08/04 08:46:25;;;;;;;;;;;25.50;47.30;;;;;;5000075;28;87168;-45
2021/08/04 08:48:50;;;;;;;;;;;25.50;47.30;;;;;;4997950;28;88402;-44
2021/08/04 08:51:17;;;;;;;;;;;25.50;47.90;;;;;;4998806;28;88061;-44
2021/08/04 08:53:43;;;;;;;;;;;25.50;47.10;;;;;;4999209;28;87352;-45
2021/08/04 08:56:08;;;;;;;;;;;25.50;47.20;;;;;;5002279;28;87206;-45
2021/08/04 08:58:34;;;;;;;;;;;25.50;47.20;;;;;;5000278;28;86479;-46
2021/08/04 09:01:00;;;;;;;;;;;25.50;47.10;;;;;;4998747;28;88417;-44
2021/08/04 09:03:25;;;;;;;;;;;25.50;47.20;;;;;;4997860;28;88658;-45
2021/08/04 09:05:52;;;;;;;;;;;25.50;47.10;;;;;;4998211;28;88080;-45
2021/08/04 09:08:23;;;;;;;;;;;25.60;47.30;;;;;;4998571;28;87816;-45
2021/08/04 09:10:49;;;;;;;;;;;25.60;47.10;;;;;;4996921;28;88786;-45
2021/08/04 09:13:14;;;;;;;;;;;25.60;47.10;;;;;;4998486;28;88190;-44
2021/08/04 09:15:41;;;;;;;;;;;25.60;47.20;;;;;;5000852;28;87149;-45
2021/08/04 09:18:11;;;;;;;;;;;25.60;47.10;;;;;;4997589;28;87139;-45
2021/08/04 09:20:45;;;;;;;;;;;25.60;47.10;;;;;;5000309;28;87520;-45
2021/08/04 09:23:15;;;;;;;;;;;25.60;46.90;;;;;;4999683;28;88761;-45
2021/08/04 09:25:40;;;;;;;;;;;25.70;47.10;;;;;;4998636;28;87233;-46
2021/08/04 09:28:06;;;;;;;;;;;25.70;47.10;;;;;;4999929;28;87468;-46
2021/08/04 09:30:33;;;;;;;;;;;25.70;47.10;;;;;;4999407;28;89177;-44
2021/08/04 09:33:10;;;;;;;;;;;25.70;47.10;;;;;;5000322;28;87151;-45
2021/08/04 09:35:42;;;;;;;;;;;25.70;47.10;;;;;;4999109;28;87976;-45
2021/08/04 09:38:07;;;;;;;;;;;25.70;47.10;;;;;;5001911;28;87769;-46
2021/08/04 09:40:33;;;;;;;;;;;25.80;47.20;;;;;;5000555;28;89053;-44
2021/08/04 09:42:58;;;;;;;;;;;25.80;47.20;;;;;;5001380;28;87782;-46
2021/08/04 09:45:36;;;;;;;;;;;25.80;47.20;;;;;;4998621;28;88862;-45
2021/08/04 09:48:08;;;;;;;;;;;25.80;46.90;;;;;;5001962;28;87685;-46
2021/08/04 09:50:49;;;;;;;;;;;25.80;46.50;;;;;;5000278;28;88988;-45
2021/08/04 09:53:24;;;;;;;;;;;25.90;47.00;;;;;;5001672;28;88823;-46
2021/08/04 09:56:08;;;;;;;;;;;25.90;47.00;;;;;;4996211;28;90087;-45
2021/08/04 09:58:37;;;;;;;;;;;25.90;47.20;;;;;;4999852;28;89619;-44
2021/08/04 10:01:03;;;;;;;;;;;25.90;47.20;;;;;;5000785;28;87224;-44
2021/08/04 10:03:29;;;;;;;;;;;25.90;47.10;;;;;;4996485;28;88565;-46
2021/08/04 10:05:55;;;;;;;;;;;25.90;47.30;;;;;;4996931;28;87150;-45
2021/08/04 10:08:21;;;;;;;;;;;25.90;47.30;;;;;;4997625;28;88832;-45
2021/08/04 10:10:50;;;;;;;;;;;26.00;47.70;;;;;;4997465;28;87659;-45
2021/08/04 10:13:19;;;;;;;;;;;26.00;47.60;;;;;;5001221;28;86513;-46
2021/08/04 10:15:46;;;;;;;;;;;26.00;47.40;;;;;;4997555;28;87935;-45
2021/08/04 10:18:17;;;;;;;;;;;26.00;47.70;;;;;;4996216;28;88176;-45
2021/08/04 10:20:43;;;;;;;;;;;26.00;47.90;;;;;;4996904;28;88098;-45
2021/08/04 10:23:11;;;;;;;;;;;26.00;47.80;;;;;;5000458;28;88568;-45
2021/08/04 10:25:37;;;;;;;;;;;26.00;47.80;;;;;;4997895;28;87202;-44
2021/08/04 10:28:05;;;;;;;;;;;26.10;48.00;;;;;;4996404;28;87243;-45
2021/08/04 10:30:31;;;;;;;;;;;26.10;48.00;;;;;;4999633;28;88072;-45
2021/08/04 10:32:57;;;;;;;;;;;26.10;48.60;;;;;;5000188;28;87201;-45
2021/08/04 10:35:23;;;;;;;;;;;26.10;48.10;;;;;;5001003;28;89041;-47
2021/08/04 10:37:49;;;;;;;;;;;26.10;48.20;;;;;;5001069;28;88047;-46
2021/08/04 10:40:16;;;;;;;;;;;26.20;48.20;;;;;;4999242;28;88789;-45
2021/08/04 10:42:43;;;;;;;;;;;26.20;48.10;;;;;;4999882;28;87776;-44
2021/08/04 10:45:22;;;;;;;;;;;26.20;48.20;;;;;;5002335;28;90366;-46
2021/08/04 10:47:51;;;;;;;;;;;26.20;48.10;;;;;;4996674;28;89480;-44
2021/08/04 10:50:17;;;;;;;;;;;26.20;48.10;;;;;;4998896;28;87813;-45
2021/08/04 10:52:57;;;;;;;;;;;26.30;47.60;;;;;;5000249;28;87173;-47
2021/08/04 10:55:43;;;;;;;;;;;26.30;47.70;;;;;;4999479;28;88780;-45
2021/08/04 10:58:08;;;;;;;;;;;26.30;47.80;;;;;;4995452;28;89481;-45
2021/08/04 11:00:34;;;;;;;;;;;26.30;48.00;;;;;;4997381;28;87165;-45
2021/08/04 11:03:20;;;;;;;;;;;26.40;48.20;;;;;;4997263;28;87513;-45
2021/08/04 11:06:04;;;;;;;;;;;26.40;47.80;;;;;;4997365;28;88278;-46
2021/08/04 11:08:30;;;;;;;;;;;26.40;47.90;;;;;;5002504;28;88687;-45
2021/08/04 11:10:55;;;;;;;;;;;26.40;47.80;;;;;;4995495;28;89043;-44
2021/08/04 11:13:40;;;;;;;;;;;26.40;47.70;;;;;;4996591;28;87172;-45
2021/08/04 11:16:24;;;;;;;;;;;26.40;47.50;;;;;;4998910;28;89346;-44
2021/08/04 11:18:59;;;;;;;;;;;26.50;47.70;;;;;;4996335;28;88554;-44
2021/08/04 11:21:25;;;;;;;;;;;26.50;47.60;;;;;;4995970;28;87180;-45
2021/08/04 11:23:51;;;;;;;;;;;26.50;47.80;;;;;;4997314;28;87405;-45
2021/08/04 11:26:24;;;;;;;;;;;26.50;47.60;;;;;;4998113;28;87537;-47
2021/08/04 11:28:50;;;;;;;;;;;26.60;47.80;;;;;;4999443;28;86484;-45
2021/08/04 11:31:17;;;;;;;;;;;26.60;47.90;;;;;;4996520;28;87898;-47
2021/08/04 11:33:43;;;;;;;;;;;26.60;47.70;;;;;;4995576;28;88325;-46
2021/08/04 11:36:22;;;;;;;;;;;26.60;47.60;;;;;;4995993;28;88100;-45
2021/08/04 11:38:47;;;;;;;;;;;26.60;48.10;;;;;;5002855;28;88563;-44
2021/08/04 11:41:13;;;;;;;;;;;26.60;47.50;;;;;;5002702;28;87167;-45
2021/08/04 11:43:38;;;;;;;;;;;26.70;47.80;;;;;;5002191;28;88728;-45
2021/08/04 11:46:04;;;;;;;;;;;26.70;47.70;;;;;;5002861;28;88041;-47
2021/08/04 11:48:48;;;;;;;;;;;26.70;45.40;;;;;;5001090;28;88809;-47
2021/08/04 11:51:13;;;;;;;;;;;27.40;40.40;;;;;;5002865;28;89080;-46
2021/08/04 11:53:42;;;;;;;;;;;27.70;39.20;;;;;;5000179;28;86389;-46
2021/08/04 11:56:07;;;;;;;;;;;28.00;38.90;;;;;;5001906;28;87214;-47
2021/08/04 11:58:33;;;;;;;;;;;28.10;38.60;;;;;;5000888;28;87625;-47
2021/08/04 12:01:14;;;;;;;;;;;28.10;38.10;;;;;;5001423;28;88165;-46
2021/08/04 12:03:39;;;;;;;;;;;28.10;38.00;;;;;;5002531;28;89673;-49
2021/08/04 12:06:14;;;;;;;;;;;28.10;37.60;;;;;;5003024;28;88182;-47
2021/08/04 12:08:39;;;;;;;;;;;28.20;37.60;;;;;;4998551;28;87146;-46
2021/08/04 12:11:05;;;;;;;;;;;28.20;36.60;;;;;;4999185;28;87601;-46
2021/08/04 12:13:31;;;;;;;;;;;28.10;35.70;;;;;;4998658;28;87769;-48
2021/08/04 12:15:59;;;;;;;;;;;28.20;35.30;;;;;;4997396;28;87667;-46
2021/08/04 12:18:25;;;;;;;;;;;28.50;34.10;;;;;;5002447;28;88252;-45
2021/08/04 12:20:52;;;;;;;;;;;28.50;34.20;;;;;;4999903;28;88529;-46
2021/08/04 12:23:22;;;;;;;;;;;28.50;33.90;;;;;;5001883;28;89061;-47
2021/08/04 12:25:56;;;;;;;;;;;28.50;33.60;;;;;;5000181;28;89873;-46
2021/08/04 12:28:27;;;;;;;;;;;28.60;33.60;;;;;;5000270;28;87134;-46
2021/08/04 12:30:53;;;;;;;;;;;28.60;34.10;;;;;;5001248;28;88299;-47
2021/08/04 12:36:03;;;;;;;;;;;28.40;35.70;;;;;;5005236;28;87176;-46
2021/08/04 12:38:30;;;;;;;;;;;28.20;36.70;;;;;;4997795;28;90112;-45
2021/08/04 12:40:56;;;;;;;;;;;28.10;37.10;;;;;;5000878;28;87446;-45
2021/08/04 12:43:23;;;;;;;;;;;28.00;38.00;;;;;;5000446;28;87792;-47
2021/08/04 12:45:51;;;;;;;;;;;28.00;38.20;;;;;;5000992;28;88413;-45
2021/08/04 12:48:18;;;;;;;;;;;28.00;37.90;;;;;;5000938;28;87279;-45
2021/08/04 12:50:57;;;;;;;;;;;28.00;38.20;;;;;;4999905;28;88049;-45
2021/08/04 12:53:23;;;;;;;;;;;28.00;38.60;;;;;;4997396;28;89722;-45
2021/08/04 12:56:01;;;;;;;;;;;28.00;37.80;;;;;;4998951;28;88813;-46
2021/08/04 12:58:27;;;;;;;;;;;28.10;38.30;;;;;;5004491;28;88874;-47
2021/08/04 13:00:53;;;;;;;;;;;28.10;37.80;;;;;;5001974;28;88797;-45
2021/08/04 13:03:28;;;;;;;;;;;28.10;37.90;;;;;;4997899;28;87464;-45
2021/08/04 13:05:54;;;;;;;;;;;28.10;38.00;;;;;;4998213;28;88081;-45
2021/08/04 13:08:33;;;;;;;;;;;28.10;38.30;;;;;;4999752;28;86397;-45
2021/08/04 13:10:59;;;;;;;;;;;28.10;37.80;;;;;;4999832;28;87148;-46
2021/08/04 13:13:24;;;;;;;;;;;28.10;37.40;;;;;;4998549;28;89756;-45
2021/08/04 13:15:53;;;;;;;;;;;28.20;37.60;;;;;;4998643;28;88130;-45
2021/08/04 13:18:35;;;;;;;;;;;28.20;37.60;;;;;;4999499;28;87853;-45
2021/08/04 13:21:11;;;;;;;;;;;28.20;37.80;;;;;;5003257;28;89672;-46
2021/08/04 13:23:36;;;;;;;;;;;28.20;36.70;;;;;;4997240;28;88975;-46
2021/08/04 13:26:02;;;;;;;;;;;28.60;32.70;;;;;;4997930;28;87147;-46
2021/08/04 13:28:38;;;;;;;;;;;28.80;31.70;;;;;;4999483;28;87132;-46
2021/08/04 13:31:05;;;;;;;;;;;28.90;31.70;;;;;;5000313;28;88908;-47
2021/08/04 13:33:30;;;;;;;;;;;29.00;31.50;;;;;;4999637;28;88654;-45
2021/08/04 13:36:00;;;;;;;;;;;29.20;31.00;;;;;;5000821;28;87169;-45
2021/08/04 13:38:26;;;;;;;;;;;29.10;32.30;;;;;;5000509;28;87817;-47
2021/08/04 13:40:53;;;;;;;;;;;28.90;33.40;;;;;;5002172;28;89910;-46
2021/08/04 13:43:18;;;;;;;;;;;28.80;33.80;;;;;;5000313;28;89204;-45
2021/08/04 13:45:44;;;;;;;;;;;28.80;32.80;;;;;;5000489;28;90037;-44
2021/08/04 13:48:09;;;;;;;;;;;29.00;31.30;;;;;;4998581;28;87208;-46
2021/08/04 13:50:35;;;;;;;;;;;29.20;30.30;;;;;;4997400;28;87978;-45
2021/08/04 13:53:02;;;;;;;;;;;29.40;30.50;;;;;;4997694;28;88506;-45
2021/08/04 13:55:28;;;;;;;;;;;29.50;30.20;;;;;;4998013;28;87085;-46
2021/08/04 13:57:55;;;;;;;;;;;29.50;30.10;;;;;;4998861;28;87720;-45
2021/08/04 14:00:23;;;;;;;;;;;29.40;30.30;;;;;;4995704;28;87622;-45
2021/08/04 14:02:49;;;;;;;;;;;29.50;31.10;;;;;;5002572;28;88630;-45
2021/08/04 14:05:15;;;;;;;;;;;29.40;30.80;;;;;;4998003;28;89817;-46
2021/08/04 14:07:41;;;;;;;;;;;29.40;30.50;;;;;;4997143;28;87132;-45
2021/08/04 14:10:11;;;;;;;;;;;29.40;30.80;;;;;;5001452;28;87536;-46
2021/08/04 14:12:37;;;;;;;;;;;29.50;31.30;;;;;;4996834;28;88711;-46
2021/08/04 14:15:06;;;;;;;;;;;29.50;31.60;;;;;;5000705;28;87144;-48
2021/08/04 14:17:32;;;;;;;;;;;29.50;31.50;;;;;;5000360;28;87589;-47